Time;durP1;ratioP1;P1;durP2;ratioP2;P2;SDS_P1;SDS_P2;PMS_P1;PMS_P2;Temp;Humidity;BMP_temperature;BMP_pressure;BME280_temperature;BME280_humidity;BME280_pressure;Samples;Min_cycle;Max_cycle;Signal;HPM_P1;HPM_P2
2022/11/12 00:00:58;;;;;;;9.20;7.05;;;;;;;6.66;70.86;102013.34;10159852;29;20052;-79
2022/11/12 00:06:19;;;;;;;11.20;7.95;;;;;;;6.67;71.33;102015.09;10162538;29;20064;-79
2022/11/12 00:11:42;;;;;;;12.88;6.82;;;;;;;6.70;71.61;102019.47;10154161;29;20053;-78
2022/11/12 00:17:03;;;;;;;13.52;7.70;;;;;;;6.61;71.73;102018.03;10154617;29;20048;-79
2022/11/12 00:22:24;;;;;;;12.63;7.78;;;;;;;6.59;71.79;102019.88;10154275;29;20052;-77
2022/11/12 00:27:47;;;;;;;10.82;7.05;;;;;;;6.55;72.46;102024.44;10152345;29;20422;-79
2022/11/12 00:33:08;;;;;;;11.13;7.70;;;;;;;6.48;72.78;102033.63;10152343;29;20053;-78
2022/11/12 00:38:30;;;;;;;12.35;7.95;;;;;;;6.46;73.28;102030.13;10134518;29;20044;-78
2022/11/12 00:43:53;;;;;;;13.77;8.63;;;;;;;6.46;73.06;102039.94;10150017;29;20052;-78
2022/11/12 00:49:14;;;;;;;12.05;8.38;;;;;;;6.45;72.99;102051.56;10150676;29;20364;-77
2022/11/12 00:54:36;;;;;;;15.57;9.13;;;;;;;6.40;73.26;102041.91;10148515;29;20533;-77
2022/11/12 00:59:58;;;;;;;17.98;11.63;;;;;;;6.33;73.50;102048.41;10161559;29;20048;-78
2022/11/12 01:05:20;;;;;;;15.75;10.50;;;;;;;6.22;73.84;102034.59;10159940;29;20076;-75
2022/11/12 01:10:41;;;;;;;11.77;8.98;;;;;;;6.21;73.89;102050.66;10161617;29;20522;-78
2022/11/12 01:16:06;;;;;;;14.95;8.27;;;;;;;6.19;73.65;102048.03;10155346;29;20055;-79
2022/11/12 01:21:30;;;;;;;13.45;8.88;;;;;;;6.16;73.46;102046.34;10162876;29;20052;-76
2022/11/12 01:26:51;;;;;;;14.75;8.55;;;;;;;6.17;73.47;102055.22;10148058;29;20577;-77
2022/11/12 01:32:13;;;;;;;13.98;8.07;;;;;;;6.13;73.51;102053.59;10130762;29;20088;-82
2022/11/12 01:37:35;;;;;;;;;;;;;;;6.05;73.58;102055.69;10144077;29;20049;-78
2022/11/12 01:42:56;;;;;;;15.07;8.55;;;;;;;5.92;74.02;102048.13;10148121;29;19970;-78
2022/11/12 01:48:26;;;;;;;13.63;8.35;;;;;;;5.90;74.18;102052.63;10160211;29;20071;-80
2022/11/12 01:53:53;;;;;;;11.35;7.97;;;;;;;5.80;74.84;102056.53;10185721;23;20052;-77
2022/11/12 01:59:19;;;;;;;15.68;8.68;;;;;;;5.80;74.84;102047.66;10152655;29;20135;-77
2022/11/12 02:04:42;;;;;;;14.10;8.88;;;;;;;5.80;74.82;102053.88;10152734;29;20505;-77
2022/11/12 02:10:05;;;;;;;15.63;8.30;;;;;;;5.78;75.05;102044.19;10144687;29;20045;-77
2022/11/12 02:15:27;;;;;;;12.18;8.77;;;;;;;5.75;75.04;102037.16;10158098;29;20060;-77
2022/11/12 02:20:57;;;;;;;13.65;8.40;;;;;;;5.77;75.23;102048.63;10154860;29;20061;-77
2022/11/12 02:26:20;;;;;;;14.70;8.40;;;;;;;5.71;75.21;102048.84;10167009;29;20047;-77
2022/11/12 02:31:41;;;;;;;13.75;8.00;;;;;;;5.69;75.28;102046.22;10163479;29;20071;-77
2022/11/12 02:37:03;;;;;;;14.55;8.63;;;;;;;5.65;75.45;102041.94;10155347;29;20041;-77
2022/11/12 02:42:25;;;;;;;14.48;8.85;;;;;;;5.62;75.30;102042.06;10162820;29;20084;-77
2022/11/12 02:47:47;;;;;;;16.30;9.05;;;;;;;5.59;75.36;102051.94;10161781;29;20044;-77
2022/11/12 02:53:08;;;;;;;15.63;8.50;;;;;;;5.56;75.74;102050.22;10143716;29;20052;-77
2022/11/12 02:58:31;;;;;;;14.95;8.65;;;;;;;5.51;75.56;102041.50;10159134;29;20439;-76
2022/11/12 03:03:52;;;;;;;16.65;8.80;;;;;;;5.45;75.77;102037.25;10170234;29;20418;-77
2022/11/12 03:09:13;;;;;;;18.92;9.75;;;;;;;5.44;75.91;102038.19;10164592;29;20041;-77
2022/11/12 03:14:36;;;;;;;16.42;10.35;;;;;;;5.38;76.17;102034.88;10160728;29;20060;-77
2022/11/12 03:19:57;;;;;;;12.82;8.32;;;;;;;5.30;76.26;102036.91;10163372;29;20044;-77
2022/11/12 03:25:19;;;;;;;16.52;9.50;;;;;;;5.24;76.44;102051.31;10161150;29;20049;-77
2022/11/12 03:30:43;;;;;;;20.05;11.25;;;;;;;5.26;76.42;102038.78;10166523;29;20648;-77
2022/11/12 03:36:05;;;;;;;15.27;9.10;;;;;;;5.24;76.41;102046.00;10160215;29;20146;-77
2022/11/12 03:41:26;;;;;;;16.23;10.40;;;;;;;5.24;76.43;102041.53;10172382;29;20127;-77
2022/11/12 03:46:48;;;;;;;17.90;9.70;;;;;;;5.22;76.46;102043.34;10149434;29;20413;-78
2022/11/12 03:52:09;;;;;;;16.95;9.50;;;;;;;5.14;76.69;102032.06;10157411;29;20068;-78
2022/11/12 03:57:31;;;;;;;15.80;10.00;;;;;;;5.03;77.17;102024.41;10153862;29;20067;-77
2022/11/12 04:02:54;;;;;;;19.38;11.18;;;;;;;5.10;77.05;102019.78;10157408;29;20088;-77
2022/11/12 04:08:37;;;;;;;16.80;10.73;;;;;;;5.05;76.93;102017.25;10164135;29;20052;-77
2022/11/12 04:13:59;;;;;;;18.08;10.25;;;;;;;5.01;77.28;102015.59;10150034;29;20056;-77
2022/11/12 04:30:48;;;;;;;17.20;11.13;;;;;;;4.96;77.27;102008.66;10115908;29;20052;-76
2022/11/12 04:36:10;;;;;;;20.48;12.02;;;;;;;5.00;77.04;101999.69;10133436;29;20469;-76
2022/11/12 04:47:10;;;;;;;20.45;12.32;;;;;;;4.85;77.13;102001.00;10164388;29;20048;-76
2022/11/12 04:52:33;;;;;;;22.50;12.23;;;;;;;4.83;77.62;101990.41;10139091;29;20079;-77
2022/11/12 04:57:54;;;;;;;21.17;12.52;;;;;;;4.74;78.39;101993.34;10158408;29;20450;-77
2022/11/12 05:03:21;;;;;;;25.30;14.27;;;;;;;4.77;78.43;101998.59;10155949;29;20047;-77
2022/11/12 05:08:43;;;;;;;20.45;12.50;;;;;;;4.87;78.16;101999.16;10153264;29;20056;-77
2022/11/12 05:14:05;;;;;;;;;;;;;;;4.94;77.62;101999.84;10159886;29;20056;-77
2022/11/12 05:19:26;;;;;;;22.52;11.50;;;;;;;4.95;77.55;102005.13;10149735;29;19927;-77
2022/11/12 05:24:49;;;;;;;21.83;12.45;;;;;;;4.95;77.00;102013.09;10135116;29;20088;-77
2022/11/12 05:30:11;;;;;;;17.98;12.15;;;;;;;4.82;76.93;102015.28;10139309;29;20054;-77
2022/11/12 05:35:32;;;;;;;24.77;13.32;;;;;;;4.81;77.09;102013.53;10149524;29;20064;-76
2022/11/12 05:40:55;;;;;;;24.95;14.27;;;;;;;4.75;77.48;102019.06;10164275;29;20052;-76
2022/11/12 05:46:16;;;;;;;21.73;13.25;;;;;;;4.71;77.56;102008.53;10139129;29;20056;-76
2022/11/12 05:51:37;;;;;;;21.52;13.23;;;;;;;4.68;77.39;102017.50;10138995;29;20092;-77
2022/11/12 05:57:00;;;;;;;24.35;13.82;;;;;;;4.60;77.16;102007.06;10143297;29;20052;-77
2022/11/12 06:02:21;;;;;;;22.17;13.48;;;;;;;4.47;76.78;102010.16;10158504;29;20056;-78
2022/11/12 06:07:43;;;;;;;23.67;14.20;;;;;;;4.37;77.44;102012.22;10164967;29;20083;-77
2022/11/12 06:13:05;;;;;;;26.65;14.50;;;;;;;4.38;77.94;102006.84;10147510;29;20080;-77
2022/11/12 06:18:27;;;;;;;;;;;;;;;4.46;78.14;102013.75;10144581;29;20048;-76
2022/11/12 06:23:52;;;;;;;27.47;14.87;;;;;;;4.50;77.77;102020.69;10139876;29;19923;-76
2022/11/12 06:29:15;;;;;;;23.52;14.32;;;;;;;4.49;77.77;102019.84;10141176;29;20523;-77
2022/11/12 06:34:37;;;;;;;28.40;14.65;;;;;;;4.51;77.79;102020.66;10140325;29;20060;-77
2022/11/12 06:39:58;;;;;;;23.55;13.30;;;;;;;4.48;77.77;102034.06;10150992;29;20065;-77
2022/11/12 06:45:20;;;;;;;47.47;22.35;;;;;;;4.87;78.11;102030.25;10163582;29;20056;-77
2022/11/12 06:50:42;;;;;;;20.25;10.93;;;;;;;5.14;78.08;102034.75;10164212;29;20040;-77
2022/11/12 06:56:05;;;;;;;17.80;11.70;;;;;;;5.28;76.66;102031.63;10159092;29;20060;-77
2022/11/12 07:01:27;;;;;;;;;;;;;;;5.18;75.83;102025.72;10162983;29;20048;-77
2022/11/12 07:06:48;;;;;;;28.10;14.23;;;;;;;5.04;76.13;102026.16;10173347;29;20369;-77
2022/11/12 07:12:10;;;;;;;29.58;15.27;;;;;;;5.03;76.57;102028.88;10171195;29;20048;-77
2022/11/12 07:17:32;;;;;;;24.50;14.70;;;;;;;5.00;76.52;102031.66;10164848;29;20048;-77
2022/11/12 07:22:54;;;;;;;22.80;13.85;;;;;;;5.05;76.32;102030.59;10163955;29;20406;-77
2022/11/12 07:28:16;;;;;;;24.07;14.47;;;;;;;5.12;76.25;102033.03;10162826;29;20048;-77
2022/11/12 07:33:38;;;;;;;22.90;14.10;;;;;;;5.11;76.28;102036.63;10167520;29;20052;-77
2022/11/12 07:39:00;;;;;;;25.70;14.07;;;;;;;5.13;76.08;102038.34;10194644;29;20040;-77
2022/11/12 07:44:21;;;;;;;27.52;15.40;;;;;;;5.23;75.86;102036.22;10195705;29;20064;-77
2022/11/12 07:49:44;;;;;;;26.45;15.15;;;;;;;5.28;75.67;102042.28;10167754;29;20052;-77
2022/11/12 07:55:06;;;;;;;25.48;15.65;;;;;;;5.37;75.25;102044.63;10179114;23;20055;-77
2022/11/12 08:00:27;;;;;;;23.63;14.38;;;;;;;5.52;75.14;102039.75;10194004;29;20047;-77
2022/11/12 08:05:50;;;;;;;23.85;14.02;;;;;;;5.58;74.67;102035.06;10169724;29;20056;-78
2022/11/12 08:11:12;;;;;;;24.20;15.15;;;;;;;5.72;74.45;102037.25;10155660;29;20048;-77
2022/11/12 08:16:33;;;;;;;24.27;14.63;;;;;;;5.94;73.81;102032.91;10164475;29;20057;-77
2022/11/12 08:21:55;;;;;;;29.15;18.60;;;;;;;6.28;72.86;102045.06;10160501;29;20048;-78
2022/11/12 08:27:17;;;;;;;23.60;15.95;;;;;;;6.41;71.94;102056.13;10156449;29;20049;-78
2022/11/12 08:32:38;;;;;;;25.58;15.93;;;;;;;7.14;70.70;102049.78;10167611;29;20053;-77
2022/11/12 08:38:02;;;;;;;21.70;14.40;;;;;;;7.54;68.25;102041.94;10156502;29;20052;-77
2022/11/12 08:43:24;;;;;;;21.98;14.43;;;;;;;8.23;66.99;102034.47;10157322;29;20417;-77
2022/11/12 08:48:45;;;;;;;22.98;13.50;;;;;;;8.97;64.41;102031.06;10160986;29;20410;-79
2022/11/12 08:54:08;;;;;;;20.08;11.93;;;;;;;9.30;62.77;102036.59;10165874;29;20056;-77
2022/11/12 08:59:29;;;;;;;16.88;11.52;;;;;;;9.53;62.39;102048.84;10154455;29;20048;-78
2022/11/12 09:04:50;;;;;;;20.20;13.27;;;;;;;9.66;62.05;102051.78;10160771;29;20060;-79
2022/11/12 09:10:13;;;;;;;20.45;13.10;;;;;;;9.43;61.79;102051.09;10165306;29;20135;-79
2022/11/12 09:15:34;;;;;;;22.42;13.23;;;;;;;8.57;64.37;102047.19;10167318;29;20052;-78
2022/11/12 09:21:03;;;;;;;22.05;13.20;;;;;;;8.48;65.75;102054.81;10164179;29;20040;-79
2022/11/12 09:26:26;;;;;;;19.60;13.23;;;;;;;8.31;65.83;102059.09;10158310;29;20064;-79
2022/11/12 09:31:47;;;;;;;19.67;12.98;;;;;;;8.07;66.95;102062.84;10162491;29;20048;-78
2022/11/12 09:37:09;;;;;;;21.50;13.93;;;;;;;8.11;67.07;102061.75;10170987;29;20052;-78
2022/11/12 09:42:35;;;;;;;18.35;13.15;;;;;;;8.12;67.28;102069.75;10160480;29;20450;-78
2022/11/12 09:48:00;;;;;;;17.50;12.60;;;;;;;8.31;66.94;102056.41;10143803;29;20122;-78
2022/11/12 09:53:27;;;;;;;20.45;13.07;;;;;;;8.73;66.02;102067.94;10154606;29;20052;-79
2022/11/12 09:58:50;;;;;;;19.75;13.70;;;;;;;9.12;64.50;102075.03;10163772;29;20048;-79
2022/11/12 10:04:28;;;;;;;18.40;11.98;;;;;;;9.66;62.98;102067.88;10161062;29;20052;-79
2022/11/12 10:09:59;;;;;;;18.50;12.95;;;;;;;10.04;62.68;102065.94;10156500;29;20045;-79
2022/11/12 10:21:41;;;;;;;15.65;10.23;;;;;;;9.47;63.69;102041.97;10144578;29;20088;-78
2022/11/12 10:27:11;;;;;;;17.27;11.25;;;;;;;9.92;63.64;102042.41;10154639;29;20470;-79
2022/11/12 10:32:37;;;;;;;12.98;10.02;;;;;;;10.54;62.43;102040.03;10149124;29;20406;-78
2022/11/12 10:38:02;;;;;;;16.25;10.75;;;;;;;10.39;61.32;102052.44;10173854;29;20131;-79
2022/11/12 10:43:25;;;;;;;16.10;11.48;;;;;;;10.42;62.11;102054.97;10162804;29;20056;-79
2022/11/12 10:48:53;;;;;;;;;;;;;;;10.40;61.48;102038.09;10167151;29;20127;-78
2022/11/12 10:54:28;;;;;;;15.07;9.98;;;;;;;10.11;61.79;102045.00;10164401;29;19928;-78
2022/11/12 11:00:06;;;;;;;17.30;10.73;;;;;;;10.34;61.80;102031.22;10164565;29;20044;-78
2022/11/12 11:05:35;;;;;;;14.27;10.02;;;;;;;10.45;61.85;102037.81;10160976;29;20151;-78
2022/11/12 11:11:14;;;;;;;13.80;10.15;;;;;;;10.74;61.63;102034.41;10157530;29;20064;-78
2022/11/12 11:16:49;;;;;;;14.55;10.05;;;;;;;10.89;60.76;102023.72;10161953;29;20052;-78
2022/11/12 11:22:30;;;;;;;13.35;9.32;;;;;;;11.14;60.75;102024.13;10163200;29;20044;-79
2022/11/12 11:28:03;;;;;;;13.40;9.52;;;;;;;11.40;60.48;102030.66;10154311;29;20041;-78
2022/11/12 11:33:38;;;;;;;14.48;9.85;;;;;;;11.90;58.92;102012.44;10168512;29;20430;-78
2022/11/12 11:39:06;;;;;;;15.88;9.82;;;;;;;12.31;57.79;102004.56;10164491;29;20044;-79
2022/11/12 11:44:39;;;;;;;10.77;9.32;;;;;;;13.15;56.29;102003.63;10170746;29;20052;-79
2022/11/12 11:50:29;;;;;;;12.23;8.98;;;;;;;13.65;54.35;102014.69;10166527;29;20068;-80
2022/11/12 11:55:57;;;;;;;12.07;7.95;;;;;;;13.13;54.45;102005.53;10157730;29;20051;-80
2022/11/12 12:01:25;;;;;;;11.65;8.88;;;;;;;12.76;55.69;101997.19;10163853;29;20052;-80
2022/11/12 12:06:57;;;;;;;13.00;8.85;;;;;;;12.98;55.52;101993.09;10166499;29;20048;-78
2022/11/12 12:12:37;;;;;;;9.68;7.68;;;;;;;14.43;51.37;101974.13;10172700;29;20082;-79
2022/11/12 12:18:07;;;;;;;10.02;8.10;;;;;;;14.89;51.51;101970.75;10174979;29;20055;-78
2022/11/12 12:23:33;;;;;;;18.27;12.30;;;;;;;15.18;50.94;101967.69;10169927;29;20051;-78
2022/11/12 12:29:01;;;;;;;10.55;8.70;;;;;;;15.24;49.80;101964.50;10162988;29;20051;-79
2022/11/12 12:34:27;;;;;;;13.10;8.55;;;;;;;15.07;50.37;101957.66;10167166;29;20064;-78
2022/11/12 12:39:55;;;;;;;8.50;7.20;;;;;;;15.13;50.39;101957.19;10169561;29;20036;-77
2022/11/12 12:45:30;;;;;;;6.55;5.90;;;;;;;15.13;49.31;101946.38;10170893;29;20040;-78
2022/11/12 12:50:56;;;;;;;8.70;6.88;;;;;;;14.94;50.10;101940.63;10168339;29;20056;-78
2022/11/12 12:56:44;;;;;;;8.13;6.88;;;;;;;14.96;50.95;101939.53;10163096;29;20056;-78
2022/11/12 13:02:20;;;;;;;7.63;6.28;;;;;;;15.29;49.61;101939.78;10160518;29;20131;-78
2022/11/12 13:07:45;;;;;;;8.75;6.43;;;;;;;14.77;50.85;101941.88;10166976;29;20331;-78
2022/11/12 13:13:25;;;;;;;9.57;6.25;;;;;;;14.04;52.41;101938.13;10166574;29;20052;-78
2022/11/12 13:19:01;;;;;;;7.78;6.13;;;;;;;13.72;53.10;101929.59;10167572;29;20044;-79
2022/11/12 13:24:56;;;;;;;7.78;6.38;;;;;;;13.36;54.05;101936.53;10151016;29;20052;-79
2022/11/12 13:31:01;;;;;;;12.02;7.60;;;;;;;13.10;55.32;101935.59;10172509;29;20067;-78
2022/11/12 13:36:27;;;;;;;8.10;6.60;;;;;;;12.88;56.07;101928.06;10106311;29;20574;-78
2022/11/12 13:47:37;;;;;;;9.32;7.40;;;;;;;12.52;57.92;101925.97;10160656;29;20057;-79
2022/11/12 13:53:00;;;;;;;7.53;6.68;;;;;;;12.30;58.90;101921.97;10167740;29;20056;-78
2022/11/12 13:58:32;;;;;;;8.93;7.40;;;;;;;12.20;59.49;101912.69;10227708;23;20040;-78
2022/11/12 14:03:53;;;;;;;11.13;7.73;;;;;;;12.14;59.94;101921.19;10208833;29;20429;-78
2022/11/12 14:09:36;;;;;;;9.82;7.63;;;;;;;11.91;60.36;101922.63;10199016;29;20055;-78
2022/11/12 14:15:13;;;;;;;9.43;7.10;;;;;;;11.72;60.70;101925.59;10196466;29;20048;-77
2022/11/12 14:20:37;;;;;;;11.10;7.38;;;;;;;11.55;61.19;101920.41;10208064;29;20127;-78
2022/11/12 14:25:59;;;;;;;11.00;9.23;;;;;;;11.44;61.53;101921.03;10229082;29;20051;-77
2022/11/12 14:31:23;;;;;;;;;;;;;;;11.41;61.89;101916.72;10228895;29;20080;-78
2022/11/12 14:36:47;;;;;;;15.55;12.32;;;;;;;11.36;62.25;101910.72;10212496;29;20534;-77
2022/11/12 14:42:15;;;;;;;;;;;;;;;11.28;62.49;101921.09;10201451;29;20060;-78
2022/11/12 14:47:36;;;;;;;12.38;9.82;;;;;;;11.20;62.90;101920.69;10197219;29;20372;-79
2022/11/12 14:53:03;;;;;;;12.32;9.45;;;;;;;11.19;63.15;101916.25;10192026;29;20052;-76
2022/11/12 14:58:27;;;;;;;12.77;8.35;;;;;;;11.14;63.49;101916.53;10198105;29;20043;-79
2022/11/12 15:03:48;;;;;;;11.85;8.80;;;;;;;11.13;64.19;101905.84;10196879;29;20494;-79
2022/11/12 15:09:09;;;;;;;12.25;8.75;;;;;;;11.04;64.70;101910.78;10191213;29;20059;-78
2022/11/12 15:14:33;;;;;;;10.68;8.15;;;;;;;10.88;64.94;101917.16;10199331;29;20568;-80
2022/11/12 15:20:01;;;;;;;11.10;8.40;;;;;;;10.56;65.70;101918.06;10202617;29;20131;-79
2022/11/12 15:25:25;;;;;;;11.05;8.23;;;;;;;10.33;66.44;101911.28;10198143;29;20048;-78
2022/11/12 15:31:05;;;;;;;14.32;9.98;;;;;;;10.10;67.07;101911.69;10189458;29;20514;-79
2022/11/12 15:36:26;;;;;;;16.17;11.35;;;;;;;9.88;67.68;101896.75;10197398;29;20048;-79
2022/11/12 15:41:48;;;;;;;15.77;11.50;;;;;;;9.59;68.57;101903.63;10198545;29;20513;-78
2022/11/12 15:47:19;;;;;;;19.42;12.57;;;;;;;9.44;69.36;101905.31;10203134;29;20051;-79
2022/11/12 15:52:41;;;;;;;24.27;16.25;;;;;;;9.37;70.08;101906.56;10203624;29;20047;-79
2022/11/12 15:58:03;;;;;;;14.55;11.00;;;;;;;9.15;70.33;101911.31;10194406;29;20064;-77
2022/11/12 16:03:26;;;;;;;20.77;13.00;;;;;;;8.95;71.19;101904.28;10194919;29;20052;-79
2022/11/12 16:08:48;;;;;;;18.02;12.55;;;;;;;8.78;71.98;101910.50;10208111;29;20044;-80
2022/11/12 16:14:13;;;;;;;21.50;13.43;;;;;;;8.53;74.00;101911.69;10216369;29;20402;-79
2022/11/12 16:19:36;;;;;;;17.85;12.38;;;;;;;8.45;74.17;101915.63;10197838;29;20059;-79
2022/11/12 16:24:57;;;;;;;21.20;13.75;;;;;;;8.44;74.20;101906.72;10189087;29;20060;-79
2022/11/12 16:30:21;;;;;;;22.23;13.77;;;;;;;8.37;74.23;101898.13;10205423;29;20052;-78
2022/11/12 16:35:44;;;;;;;21.52;14.77;;;;;;;8.34;74.11;101905.44;10203532;29;20480;-78
2022/11/12 16:41:06;;;;;;;22.10;15.13;;;;;;;8.28;74.62;101901.25;10194948;29;20040;-80
2022/11/12 16:46:30;;;;;;;21.40;14.30;;;;;;;8.13;75.74;101892.13;10198884;29;20051;-79
2022/11/12 16:51:52;;;;;;;22.63;15.82;;;;;;;8.03;76.37;101904.19;10210432;29;20044;-78
2022/11/12 16:57:14;;;;;;;30.45;18.17;;;;;;;8.03;76.31;101898.84;10184760;29;20059;-78
2022/11/12 17:02:35;;;;;;;22.60;16.05;;;;;;;8.04;76.17;101894.38;10226260;28;20112;-79
2022/11/12 17:08:06;;;;;;;30.38;19.60;;;;;;;7.97;75.99;101899.13;10209083;29;20118;-79
2022/11/12 17:13:27;;;;;;;28.58;17.95;;;;;;;7.81;77.03;101898.09;10195909;29;20498;-79
2022/11/12 17:18:53;;;;;;;32.17;21.27;;;;;;;7.76;78.06;101894.75;10199220;29;20116;-79
2022/11/12 17:24:16;;;;;;;29.77;20.42;;;;;;;7.75;77.92;101893.03;10177960;29;20288;-80
2022/11/12 17:29:37;;;;;;;27.88;19.20;;;;;;;7.71;77.55;101894.97;10191688;29;20420;-79
2022/11/12 17:34:58;;;;;;;33.45;21.20;;;;;;;7.60;77.87;101895.44;10219716;29;20048;-79
2022/11/12 17:40:21;;;;;;;31.90;20.80;;;;;;;7.56;77.91;101890.28;10223470;29;20051;-81
2022/11/12 17:45:49;;;;;;;33.40;22.52;;;;;;;7.53;77.95;101879.75;10210877;29;20072;-79
2022/11/12 17:51:13;;;;;;;38.13;22.02;;;;;;;7.48;77.64;101885.28;10204454;29;20481;-80
2022/11/12 17:56:36;;;;;;;29.50;20.65;;;;;;;7.43;77.41;101881.94;10206220;29;20552;-80
2022/11/12 18:01:57;;;;;;;36.00;22.98;;;;;;;7.39;77.53;101875.88;10215676;29;20052;-78
2022/11/12 18:07:18;;;;;;;37.30;23.02;;;;;;;7.35;77.37;101868.94;10204557;29;20477;-79
2022/11/12 18:12:42;;;;;;;32.35;22.10;;;;;;;7.30;77.18;101867.41;10202105;29;20044;-79
2022/11/12 18:18:04;;;;;;;36.67;22.48;;;;;;;7.29;77.59;101866.50;10197646;29;20056;-79
2022/11/12 18:23:25;;;;;;;32.00;22.27;;;;;;;7.33;77.14;101864.59;10212510;29;20055;-80
2022/11/12 18:28:52;;;;;;;32.28;22.15;;;;;;;7.23;77.07;101866.78;10200071;29;20035;-80
2022/11/12 18:34:14;;;;;;;28.10;18.30;;;;;;;7.00;76.17;101870.44;10247948;29;20043;-77
2022/11/12 18:39:39;;;;;;;25.02;17.90;;;;;;;6.99;76.72;101866.03;10194514;29;20059;-78
2022/11/12 18:45:02;;;;;;;35.10;22.35;;;;;;;7.08;77.12;101864.78;10210385;29;20438;-76
2022/11/12 18:50:23;;;;;;;36.17;24.20;;;;;;;7.12;77.36;101853.88;10196267;29;20055;-81
2022/11/12 18:55:45;;;;;;;32.22;22.02;;;;;;;7.13;77.59;101849.41;10199352;29;20159;-78
2022/11/12 19:01:11;;;;;;;33.10;22.83;;;;;;;7.10;77.25;101869.09;10201325;29;20084;-79
2022/11/12 19:06:33;;;;;;;33.47;21.30;;;;;;;7.14;77.68;101864.53;10201338;29;20473;-78
2022/11/12 19:11:54;;;;;;;36.65;25.23;;;;;;;7.21;78.53;101858.84;10197739;29;20683;-78
2022/11/12 19:17:17;;;;;;;36.45;23.50;;;;;;;7.28;78.34;101854.94;10209149;29;20052;-78
2022/11/12 19:22:38;;;;;;;26.60;21.15;;;;;;;7.28;78.55;101852.28;10204802;29;20055;-78
2022/11/12 19:27:59;;;;;;;35.72;22.65;;;;;;;7.27;78.45;101858.56;10213417;29;20060;-79
2022/11/12 19:33:22;;;;;;;27.35;21.48;;;;;;;7.28;78.30;101849.59;10199120;29;20497;-78
2022/11/12 19:38:43;;;;;;;;;;;;;;;7.23;78.05;101832.03;10186634;29;20060;-79
2022/11/12 19:44:05;;;;;;;30.27;19.70;;;;;;;7.11;77.67;101830.78;10206248;29;20376;-78
2022/11/12 19:49:28;;;;;;;27.17;19.67;;;;;;;7.04;77.55;101837.31;10215460;29;20064;-78
2022/11/12 19:54:49;;;;;;;27.85;20.13;;;;;;;7.05;77.61;101833.72;10211802;29;20447;-81
2022/11/12 20:00:12;;;;;;;26.25;19.15;;;;;;;7.04;77.30;101829.28;10231324;23;20134;-76
2022/11/12 20:05:35;;;;;;;22.67;17.23;;;;;;;6.63;76.23;101834.56;10188280;29;20044;-75
2022/11/12 20:10:58;;;;;;;23.75;17.98;;;;;;;6.40;76.29;101839.03;10151148;29;20052;-76
2022/11/12 20:16:19;;;;;;;31.02;21.88;;;;;;;6.27;76.36;101832.44;10153171;29;20417;-78
2022/11/12 20:21:47;;;;;;;28.13;19.40;;;;;;;6.01;77.16;101827.28;10145093;29;20124;-76
2022/11/12 20:27:09;;;;;;;28.85;20.95;;;;;;;6.09;77.33;101827.88;10131584;29;20135;-75
2022/11/12 20:32:30;;;;;;;26.83;19.33;;;;;;;6.08;77.10;101807.44;10144699;29;20048;-77
2022/11/12 20:37:53;;;;;;;27.33;18.75;;;;;;;6.04;76.97;101812.03;10147775;29;20514;-76
2022/11/12 20:43:15;;;;;;;24.77;18.77;;;;;;;6.04;76.75;101805.84;10142369;29;20045;-77
2022/11/12 20:48:37;;;;;;;29.52;18.73;;;;;;;5.80;76.79;101808.50;10163628;29;20049;-76
2022/11/12 20:54:05;;;;;;;28.40;20.35;;;;;;;5.79;77.38;101809.44;10160925;29;20079;-75
2022/11/12 20:59:27;;;;;;;29.00;20.35;;;;;;;5.83;77.56;101808.38;10160304;29;20048;-76
2022/11/12 21:04:48;;;;;;;29.03;18.83;;;;;;;5.92;77.81;101797.38;10156954;29;20516;-76
2022/11/12 21:10:11;;;;;;;30.13;20.98;;;;;;;6.07;78.26;101795.91;10168067;29;20060;-76
2022/11/12 21:15:32;;;;;;;26.23;19.38;;;;;;;6.18;77.81;101782.13;10157357;29;20524;-76
2022/11/12 21:21:00;;;;;;;21.92;15.80;;;;;;;6.05;77.07;101776.41;10151802;29;20048;-76
2022/11/12 21:26:23;;;;;;;24.33;17.38;;;;;;;5.95;77.47;101775.91;10162854;29;20410;-76
2022/11/12 21:31:45;;;;;;;24.75;17.83;;;;;;;6.04;77.65;101772.00;10168584;29;20119;-76
2022/11/12 21:37:06;;;;;;;24.70;16.05;;;;;;;6.24;77.87;101768.53;10165434;29;20044;-77
2022/11/12 21:42:28;;;;;;;24.02;15.82;;;;;;;6.29;77.43;101763.88;10160963;29;20469;-76
2022/11/12 21:47:50;;;;;;;21.15;15.48;;;;;;;6.28;77.19;101767.50;10157082;29;20040;-76
2022/11/12 21:53:11;;;;;;;22.75;16.63;;;;;;;6.40;77.28;101761.63;10159059;29;20045;-77
2022/11/12 21:58:35;;;;;;;19.13;14.65;;;;;;;6.45;76.69;101760.59;10165573;29;20055;-77
2022/11/12 22:03:58;;;;;;;16.10;12.48;;;;;;;6.11;75.29;101754.81;10152374;29;20064;-77
2022/11/12 22:09:20;;;;;;;15.30;13.45;;;;;;;5.75;74.39;101758.94;10157675;29;20052;-77
2022/11/12 22:14:42;;;;;;;17.92;12.55;;;;;;;5.56;74.16;101762.31;10159766;29;20053;-77
2022/11/12 22:20:04;;;;;;;17.35;14.68;;;;;;;5.40;74.53;101756.72;10134550;29;20061;-75
2022/11/12 22:25:25;;;;;;;20.43;14.83;;;;;;;5.35;74.88;101747.13;10165848;29;20053;-75
2022/11/12 22:30:48;;;;;;;21.73;14.75;;;;;;;5.30;75.12;101747.31;10156340;29;20565;-76
2022/11/12 22:36:11;;;;;;;19.40;15.27;;;;;;;5.27;75.11;101747.44;10137678;29;20045;-76
2022/11/12 22:41:32;;;;;;;19.40;14.52;;;;;;;5.21;75.34;101745.88;10157635;29;20052;-76
2022/11/12 22:46:55;;;;;;;20.45;15.23;;;;;;;5.15;75.33;101742.56;10173225;29;20060;-76
2022/11/12 22:52:16;;;;;;;23.48;17.50;;;;;;;5.09;75.98;101743.66;10137037;29;20494;-76
2022/11/12 22:57:37;;;;;;;27.02;19.63;;;;;;;5.17;76.28;101746.91;10150105;29;20154;-76
2022/11/12 23:03:00;;;;;;;26.38;18.48;;;;;;;5.17;76.12;101743.38;10163202;29;20048;-76
2022/11/12 23:08:21;;;;;;;36.13;24.73;;;;;;;5.15;76.00;101734.56;10165898;29;20091;-76
2022/11/12 23:13:43;;;;;;;41.63;26.75;;;;;;;5.13;76.41;101726.66;10150520;29;20045;-76
2022/11/12 23:19:05;;;;;;;41.58;24.73;;;;;;;5.13;76.35;101718.66;10151529;29;20526;-76
2022/11/12 23:24:27;;;;;;;38.35;22.42;;;;;;;5.11;75.92;101716.97;10134292;29;20048;-75
2022/11/12 23:29:48;;;;;;;29.45;21.02;;;;;;;4.96;76.13;101727.19;10139435;29;20056;-76
2022/11/12 23:35:11;;;;;;;43.88;24.10;;;;;;;4.99;76.43;101719.16;10155549;29;20091;-75
2022/11/12 23:40:32;;;;;;;38.40;22.77;;;;;;;4.95;76.24;101716.63;10156875;29;20065;-76
2022/11/12 23:45:54;;;;;;;36.92;24.55;;;;;;;4.95;76.26;101709.50;10162711;29;20521;-76
2022/11/12 23:51:18;;;;;;;31.17;20.23;;;;;;;4.89;75.79;101708.88;10155357;29;20052;-76
2022/11/12 23:56:40;;;;;;;32.75;21.50;;;;;;;4.75;75.79;101704.91;10153737;29;20052;-76
